createdAt,value
2019-01-30T00:01:34.771Z,37.80
2019-01-30T00:04:04.160Z,31.80
2019-01-30T00:06:33.517Z,36.17
2019-01-30T00:09:02.921Z,31.57
2019-01-30T00:11:32.252Z,35.23
2019-01-30T00:14:01.622Z,36.77
2019-01-30T00:16:30.957Z,31.13
2019-01-30T00:19:00.294Z,31.80
2019-01-30T00:21:29.326Z,29.47
2019-01-30T00:23:58.578Z,29.27
2019-01-30T00:26:27.993Z,34.67
2019-01-30T00:28:57.358Z,28.63
2019-01-30T00:31:26.702Z,27.70
2019-01-30T00:33:56.033Z,27.20
2019-01-30T00:36:25.478Z,26.03
2019-01-30T00:38:54.881Z,27.90
2019-01-30T00:41:24.222Z,27.20
2019-01-30T00:43:53.593Z,29.93
2019-01-30T00:46:22.943Z,29.47
2019-01-30T00:48:52.273Z,28.67
2019-01-30T00:51:21.697Z,28.80
2019-01-30T00:53:51.053Z,28.07
2019-01-30T00:56:20.462Z,23.90
2019-01-30T00:58:49.835Z,27.30
2019-01-30T01:01:19.175Z,35.80
2019-01-30T01:03:48.511Z,37.37
2019-01-30T01:06:17.874Z,26.90
2019-01-30T01:08:47.219Z,35.63
2019-01-30T01:11:16.612Z,37.87
2019-01-30T01:13:45.973Z,36.93
2019-01-30T01:16:15.324Z,42.53
2019-01-30T01:18:44.666Z,44.70
2019-01-30T01:21:14.032Z,43.43
2019-01-30T01:23:43.374Z,37.60
2019-01-30T01:26:12.377Z,40.50
2019-01-30T01:28:41.645Z,42.07
2019-01-30T01:31:10.649Z,41.87
2019-01-30T01:33:39.898Z,41.90
2019-01-30T01:36:08.933Z,45.13
2019-01-30T01:38:38.186Z,40.70
2019-01-30T01:41:07.513Z,43.17
2019-01-30T01:43:36.891Z,40.17
2019-01-30T01:46:05.886Z,37.07
2019-01-30T01:48:34.802Z,37.53
2019-01-30T01:51:04.146Z,41.20
2019-01-30T01:53:33.481Z,41.40
2019-01-30T01:56:02.822Z,39.53
2019-01-30T01:58:32.258Z,36.00
2019-01-30T02:01:01.666Z,38.20
2019-01-30T02:03:30.993Z,37.50
2019-01-30T02:06:00.370Z,32.20
2019-01-30T02:08:29.710Z,35.27
2019-01-30T02:10:59.041Z,33.07
2019-01-30T02:13:28.401Z,39.27
2019-01-30T02:15:57.741Z,31.97
2019-01-30T02:18:27.088Z,54.63
2019-01-30T02:20:56.697Z,34.27
2019-01-30T02:23:26.039Z,33.60
2019-01-30T02:25:55.373Z,34.00
2019-01-30T02:28:24.743Z,36.03
2019-01-30T02:30:54.073Z,33.43
2019-01-30T02:33:23.409Z,26.97
2019-01-30T02:35:52.777Z,33.30
2019-01-30T02:38:22.115Z,29.90
2019-01-30T02:40:51.461Z,28.10
2019-01-30T02:43:20.838Z,30.23
2019-01-30T02:45:50.170Z,34.77
2019-01-30T02:48:19.510Z,32.47
2019-01-30T02:50:48.880Z,33.23
2019-01-30T02:53:18.221Z,30.57
2019-01-30T02:55:47.557Z,26.27
2019-01-30T02:58:16.919Z,29.87
2019-01-30T03:00:46.259Z,27.13
2019-01-30T03:03:15.596Z,30.77
2019-01-30T03:05:44.965Z,35.87
2019-01-30T03:08:14.304Z,33.00
2019-01-30T03:10:43.629Z,33.00
2019-01-30T03:13:12.992Z,34.47
2019-01-30T03:15:42.330Z,31.90
2019-01-30T03:18:11.737Z,32.50
2019-01-30T03:20:41.118Z,31.97
2019-01-30T03:23:10.459Z,30.83
2019-01-30T03:25:39.870Z,31.43
2019-01-30T03:28:09.226Z,35.30
2019-01-30T03:30:38.579Z,32.80
2019-01-30T03:33:09.555Z,29.73
2019-01-30T03:35:38.964Z,34.70
2019-01-30T03:38:08.294Z,33.40
2019-01-30T03:40:37.690Z,27.90
2019-01-30T03:43:07.081Z,32.37
2019-01-30T03:45:36.422Z,30.90
2019-01-30T03:48:05.757Z,31.87
2019-01-30T03:50:35.456Z,30.03
2019-01-30T03:53:04.839Z,32.23
2019-01-30T03:55:34.179Z,29.40
2019-01-30T03:58:03.210Z,30.43
2019-01-30T04:00:32.126Z,35.03
2019-01-30T04:03:01.382Z,36.47
2019-01-30T04:05:30.745Z,35.97
2019-01-30T04:08:00.082Z,34.83
2019-01-30T04:10:29.414Z,36.83
2019-01-30T04:12:58.777Z,29.97
2019-01-30T04:15:27.781Z,34.80
2019-01-30T04:17:57.027Z,34.00
2019-01-30T04:20:26.389Z,33.83
2019-01-30T04:22:55.393Z,31.90
2019-01-30T04:25:24.645Z,36.50
2019-01-30T04:27:54.386Z,41.20
2019-01-30T04:30:25.065Z,38.17
2019-01-30T04:32:54.420Z,43.77
2019-01-30T04:35:23.437Z,35.70
2019-01-30T04:37:52.703Z,43.57
2019-01-30T04:40:21.763Z,38.07
2019-01-30T04:42:50.697Z,34.53
2019-01-30T04:45:22.369Z,35.43
2019-01-30T04:47:51.785Z,42.10
2019-01-30T04:50:21.156Z,40.83
2019-01-30T04:52:50.566Z,37.80
2019-01-30T04:55:20.050Z,41.83
2019-01-30T04:57:49.076Z,35.63
2019-01-30T05:00:23.869Z,38.03
2019-01-30T05:02:52.933Z,35.70
2019-01-30T05:05:22.201Z,39.33
2019-01-30T05:07:51.198Z,38.70
2019-01-30T05:10:20.108Z,35.03
2019-01-30T05:12:49.051Z,35.53
2019-01-30T05:15:19.731Z,36.83
2019-01-30T05:17:48.728Z,36.87
2019-01-30T05:20:21.521Z,40.60
2019-01-30T05:22:50.842Z,37.37
2019-01-30T05:25:20.412Z,37.10
2019-01-30T05:27:49.822Z,35.27
2019-01-30T05:30:20.356Z,41.23
2019-01-30T05:32:49.274Z,33.83
2019-01-30T05:35:18.554Z,43.33
2019-01-30T05:37:47.553Z,37.87
2019-01-30T05:40:18.548Z,41.53
2019-01-30T05:42:47.914Z,37.53
2019-01-30T05:45:17.786Z,40.63
2019-01-30T05:47:47.182Z,36.17
2019-01-30T05:50:16.249Z,33.57
2019-01-30T05:52:45.530Z,33.17
2019-01-30T05:55:15.003Z,33.70
2019-01-30T05:57:44.628Z,32.20
2019-01-30T06:00:15.145Z,32.60
2019-01-30T06:02:44.057Z,37.53
2019-01-30T06:05:13.087Z,33.97
2019-01-30T06:07:42.348Z,39.17
2019-01-30T06:10:11.418Z,32.73
2019-01-30T06:12:41.073Z,35.60
2019-01-30T06:15:13.514Z,29.03
2019-01-30T06:17:42.506Z,29.70
2019-01-30T06:20:13.217Z,30.57
2019-01-30T06:22:42.202Z,31.77
2019-01-30T06:25:11.587Z,30.93
2019-01-30T06:27:40.954Z,33.60
2019-01-30T06:30:13.866Z,32.27
2019-01-30T06:32:43.110Z,30.00
2019-01-30T06:35:12.667Z,27.00
2019-01-30T06:37:41.712Z,34.20
2019-01-30T06:40:16.702Z,33.37
2019-01-30T06:42:46.035Z,32.90
2019-01-30T06:45:15.096Z,25.00
2019-01-30T06:47:44.547Z,24.77
2019-01-30T06:50:14.622Z,22.13
2019-01-30T06:52:43.970Z,22.53
2019-01-30T06:55:13.009Z,25.10
2019-01-30T06:57:41.918Z,35.57
2019-01-30T07:00:14.374Z,30.90
2019-01-30T07:02:43.802Z,22.97
2019-01-30T07:05:12.973Z,28.03
2019-01-30T07:07:41.887Z,23.20
2019-01-30T07:10:16.404Z,23.93
2019-01-30T07:12:45.802Z,23.60
2019-01-30T07:15:15.277Z,31.80
2019-01-30T07:17:44.646Z,28.27
2019-01-30T07:23:23.771Z,25.07
2019-01-30T07:25:53.014Z,30.47
2019-01-30T07:28:22.022Z,30.23
2019-01-30T07:30:50.965Z,29.07
2019-01-30T07:33:19.878Z,29.57
2019-01-30T07:35:48.784Z,25.30
2019-01-30T07:38:17.769Z,25.03
2019-01-30T07:40:47.059Z,23.83
2019-01-30T07:43:16.049Z,33.73
2019-01-30T07:45:45.321Z,32.03
2019-01-30T07:48:14.593Z,27.70
2019-01-30T07:50:43.501Z,25.67
2019-01-30T07:53:12.773Z,25.17
2019-01-30T07:55:42.101Z,26.17
2019-01-30T07:58:11.109Z,25.70
2019-01-30T08:00:40.051Z,23.67
2019-01-30T08:03:09.294Z,25.47
2019-01-30T08:05:38.289Z,25.03
2019-01-30T08:08:07.234Z,26.67
2019-01-30T08:10:36.141Z,26.27
2019-01-30T08:13:05.057Z,23.47
2019-01-30T08:15:34.775Z,23.47
2019-01-30T08:18:04.333Z,24.47
2019-01-30T08:20:33.333Z,23.80
2019-01-30T08:23:02.673Z,23.60
2019-01-30T08:25:31.674Z,22.13
2019-01-30T08:28:01.036Z,24.83
2019-01-30T08:30:30.932Z,23.47
2019-01-30T08:33:04.802Z,22.40
2019-01-30T08:35:31.508Z,25.10
2019-01-30T08:38:00.937Z,20.10
2019-01-30T08:40:30.013Z,21.33
2019-01-30T08:42:59.254Z,18.43
2019-01-30T08:45:29.048Z,19.10
2019-01-30T08:47:57.956Z,20.57
2019-01-30T08:50:26.942Z,23.30
2019-01-30T08:52:56.384Z,18.07
2019-01-30T08:55:25.705Z,18.03
2019-01-30T08:57:54.710Z,19.30
2019-01-30T09:00:27.409Z,20.90
2019-01-30T09:02:56.653Z,20.63
2019-01-30T09:05:25.914Z,18.87
2019-01-30T09:07:55.178Z,20.57
2019-01-30T09:10:26.339Z,16.73
2019-01-30T09:12:55.509Z,18.27
2019-01-30T09:15:25.301Z,16.13
2019-01-30T09:17:54.602Z,18.50
2019-01-30T09:20:24.369Z,18.27
2019-01-30T09:22:53.718Z,14.30
2019-01-30T09:25:23.785Z,15.10
2019-01-30T09:27:53.097Z,15.80
2019-01-30T09:30:25.992Z,17.10
2019-01-30T09:32:55.569Z,15.87
2019-01-30T09:35:24.965Z,17.53
2019-01-30T09:37:54.571Z,15.47
2019-01-30T09:40:24.481Z,16.87
2019-01-30T09:42:53.902Z,14.67
2019-01-30T09:45:23.312Z,11.90
2019-01-30T09:47:52.551Z,15.77
2019-01-30T09:50:23.691Z,14.03
2019-01-30T09:52:54.085Z,14.73
2019-01-30T09:55:23.499Z,15.23
2019-01-30T09:57:52.466Z,13.77
2019-01-30T10:00:22.977Z,16.87
2019-01-30T10:02:51.879Z,17.13
2019-01-30T10:05:21.109Z,14.70
2019-01-30T10:07:50.466Z,14.80
2019-01-30T10:10:28.489Z,15.07
2019-01-30T10:12:57.953Z,16.63
2019-01-30T10:15:38.878Z,13.47
2019-01-30T10:18:08.402Z,17.00
2019-01-30T10:20:39.065Z,17.70
2019-01-30T10:23:08.393Z,21.33
2019-01-30T10:25:37.413Z,14.20
2019-01-30T10:28:16.331Z,16.00
2019-01-30T10:30:38.825Z,16.50
2019-01-30T10:33:07.768Z,13.03
2019-01-30T10:35:37.082Z,11.57
2019-01-30T10:38:06.295Z,15.73
2019-01-30T10:40:35.310Z,15.77
2019-01-30T10:43:04.684Z,15.03
2019-01-30T10:45:33.765Z,16.57
2019-01-30T10:48:03.034Z,16.37
2019-01-30T10:50:32.752Z,13.83
2019-01-30T10:53:02.122Z,16.60
2019-01-30T10:55:33.822Z,15.40
2019-01-30T10:58:08.209Z,14.90
2019-01-30T11:00:41.773Z,13.47
2019-01-30T11:03:11.141Z,16.30
2019-01-30T11:05:40.470Z,13.87
2019-01-30T11:08:09.665Z,13.77
2019-01-30T11:10:38.897Z,12.43
2019-01-30T11:13:08.370Z,13.53
2019-01-30T11:15:37.729Z,11.63
2019-01-30T11:18:09.189Z,14.53
2019-01-30T11:20:38.250Z,10.73
2019-01-30T11:23:07.177Z,10.57
2019-01-30T11:25:42.293Z,12.17
2019-01-30T11:28:11.806Z,10.40
2019-01-30T11:30:41.139Z,10.33
2019-01-30T11:33:10.441Z,11.90
2019-01-30T11:35:39.545Z,11.20
2019-01-30T11:38:09.141Z,8.87
2019-01-30T11:40:38.569Z,9.17
2019-01-30T11:43:07.917Z,8.30
2019-01-30T11:45:42.504Z,10.33
2019-01-30T11:48:11.902Z,11.00
2019-01-30T11:50:41.006Z,8.20
2019-01-30T11:53:10.376Z,10.10
2019-01-30T11:55:39.704Z,8.27
2019-01-30T11:58:09.199Z,11.93
2019-01-30T12:00:40.230Z,7.80
2019-01-30T12:03:09.627Z,11.03
2019-01-30T12:05:38.651Z,7.87
2019-01-30T12:08:08.012Z,9.97
2019-01-30T12:10:36.998Z,6.10
2019-01-30T12:13:05.922Z,6.10
2019-01-30T12:15:35.162Z,9.37
2019-01-30T12:18:04.621Z,8.40
2019-01-30T12:20:33.650Z,12.63
2019-01-30T12:23:02.963Z,11.57
2019-01-30T12:25:32.286Z,7.80
2019-01-30T12:28:01.304Z,11.63
2019-01-30T12:30:30.577Z,8.60
2019-01-30T12:32:59.818Z,7.33
2019-01-30T12:35:29.165Z,9.57
2019-01-30T12:37:58.562Z,11.03
2019-01-30T12:40:27.558Z,6.10
2019-01-30T12:42:56.498Z,15.27
2019-01-30T12:45:26.478Z,10.57
2019-01-30T12:47:55.458Z,7.67
2019-01-30T12:50:24.802Z,7.17
2019-01-30T12:52:53.856Z,12.30
2019-01-30T12:55:23.173Z,9.63
2019-01-30T12:57:52.251Z,7.20
2019-01-30T13:00:30.934Z,6.37
2019-01-30T13:03:00.349Z,8.40
2019-01-30T13:05:29.712Z,8.30
2019-01-30T13:07:58.609Z,6.43
2019-01-30T13:10:27.551Z,7.57
2019-01-30T13:12:56.769Z,6.47
2019-01-30T13:15:28.393Z,8.27
2019-01-30T13:17:58.107Z,6.70
2019-01-30T13:20:27.177Z,6.40
2019-01-30T13:22:56.134Z,8.07
2019-01-30T13:25:28.999Z,6.53
2019-01-30T13:27:58.340Z,9.23
2019-01-30T13:30:28.901Z,7.70
2019-01-30T13:32:57.901Z,5.77
2019-01-30T13:35:27.405Z,7.03
2019-01-30T13:37:56.384Z,7.57
2019-01-30T13:40:28.593Z,5.87
2019-01-30T13:42:57.648Z,7.93
2019-01-30T13:45:26.921Z,6.27
2019-01-30T13:47:56.443Z,7.00
2019-01-30T13:50:26.422Z,6.93
2019-01-30T13:52:55.390Z,7.37
2019-01-30T13:55:24.365Z,7.07
2019-01-30T13:57:53.448Z,6.83
2019-01-30T14:00:28.467Z,6.20
2019-01-30T14:02:57.559Z,7.23
2019-01-30T14:05:26.778Z,7.20
2019-01-30T14:07:56.585Z,6.87
2019-01-30T14:10:27.236Z,7.30
2019-01-30T14:12:56.264Z,9.63
2019-01-30T14:15:30.454Z,7.67
2019-01-30T14:17:59.495Z,8.30
2019-01-30T14:20:28.431Z,9.03
2019-01-30T14:22:57.350Z,9.53
2019-01-30T14:25:26.243Z,7.40
2019-01-30T14:27:55.488Z,7.27
2019-01-30T14:30:27.262Z,7.43
2019-01-30T14:32:56.262Z,8.43
2019-01-30T14:35:26.929Z,6.80
2019-01-30T14:37:55.991Z,5.67
2019-01-30T14:40:25.215Z,9.80
2019-01-30T14:42:54.217Z,5.73
2019-01-30T14:45:23.765Z,10.00
2019-01-30T14:47:53.385Z,17.63
2019-01-30T14:50:23.489Z,6.03
2019-01-30T14:52:52.639Z,7.43
2019-01-30T14:55:21.778Z,7.83
2019-01-30T14:57:51.430Z,9.57
2019-01-30T15:00:28.709Z,8.20
2019-01-30T15:02:58.239Z,8.10
2019-01-30T15:05:27.533Z,7.73
2019-01-30T15:07:56.814Z,8.43
2019-01-30T15:10:26.665Z,5.23
2019-01-30T15:12:55.569Z,6.90
2019-01-30T15:15:26.039Z,4.83
2019-01-30T15:17:55.287Z,8.63
2019-01-30T15:20:26.439Z,8.97
2019-01-30T15:22:55.701Z,7.13
2019-01-30T15:25:24.782Z,7.73
2019-01-30T15:27:53.689Z,5.10
2019-01-30T15:30:26.022Z,8.87
2019-01-30T15:32:55.340Z,9.60
2019-01-30T15:35:33.329Z,9.63
2019-01-30T15:37:55.293Z,12.07
2019-01-30T15:40:29.565Z,7.43
2019-01-30T15:42:58.969Z,14.83
2019-01-30T15:45:28.393Z,10.43
2019-01-30T15:47:57.384Z,18.77
2019-01-30T15:50:30.855Z,9.13
2019-01-30T15:53:00.064Z,10.13
2019-01-30T15:55:29.474Z,10.97
2019-01-30T15:58:07.533Z,11.30
2019-01-30T16:00:41.008Z,10.93
2019-01-30T16:03:09.930Z,10.20
2019-01-30T16:05:44.894Z,11.00
2019-01-30T16:08:09.881Z,11.03
2019-01-30T16:10:38.786Z,11.77
2019-01-30T16:13:07.725Z,10.50
2019-01-30T16:15:49.097Z,11.90
2019-01-30T16:18:18.454Z,12.53
2019-01-30T16:20:47.456Z,13.27
2019-01-30T16:23:16.762Z,11.67
2019-01-30T16:25:45.790Z,10.67
2019-01-30T16:28:15.029Z,11.20
2019-01-30T16:30:44.029Z,10.43
2019-01-30T16:33:12.976Z,13.67
2019-01-30T16:35:41.876Z,12.07
2019-01-30T16:38:11.122Z,10.60
2019-01-30T16:40:40.496Z,12.50
2019-01-30T16:43:09.891Z,11.43
2019-01-30T16:45:39.290Z,12.83
2019-01-30T16:48:08.323Z,12.40
2019-01-30T16:50:37.225Z,13.23
2019-01-30T16:53:07.316Z,14.57
2019-01-30T16:55:37.917Z,11.97
2019-01-30T16:58:07.769Z,13.50
2019-01-30T17:00:38.269Z,13.63
2019-01-30T17:03:08.371Z,13.93
2019-01-30T17:05:37.270Z,13.43
2019-01-30T17:08:06.661Z,13.67
2019-01-30T17:10:35.590Z,18.57
2019-01-30T17:13:05.324Z,14.50
2019-01-30T17:15:38.587Z,17.17
2019-01-30T17:18:08.498Z,17.07
2019-01-30T17:20:38.373Z,17.07
2019-01-30T17:23:07.281Z,14.93
2019-01-30T17:25:36.938Z,15.37
2019-01-30T17:28:06.542Z,16.43
2019-01-30T17:30:39.798Z,14.27
2019-01-30T17:33:08.883Z,16.03
2019-01-30T17:35:38.214Z,16.73
2019-01-30T17:38:07.937Z,18.83
2019-01-30T17:40:37.433Z,17.73
2019-01-30T17:43:06.426Z,17.33
2019-01-30T17:45:35.438Z,21.77
2019-01-30T17:48:05.126Z,24.67
2019-01-30T17:50:34.369Z,27.40
2019-01-30T17:53:03.721Z,18.80
2019-01-30T17:55:32.721Z,21.03
2019-01-30T17:58:01.820Z,19.07
2019-01-30T18:00:49.888Z,21.20
2019-01-30T18:03:18.886Z,17.43
2019-01-30T18:05:48.265Z,19.63
2019-01-30T18:08:17.302Z,16.33
2019-01-30T18:10:46.206Z,17.30
2019-01-30T18:13:15.109Z,16.80
2019-01-30T18:15:44.382Z,16.63
2019-01-30T18:18:13.373Z,18.30
2019-01-30T18:20:42.613Z,17.50
2019-01-30T18:23:11.651Z,17.70
2019-01-30T18:25:40.562Z,17.93
2019-01-30T18:28:09.469Z,18.37
2019-01-30T18:30:38.744Z,18.27
2019-01-30T18:33:07.747Z,17.93
2019-01-30T18:35:36.999Z,20.70
2019-01-30T18:38:06.398Z,18.57
2019-01-30T18:40:35.317Z,20.33
2019-01-30T18:43:04.631Z,22.67
2019-01-30T18:45:33.660Z,18.33
2019-01-30T18:48:02.897Z,17.83
2019-01-30T18:50:32.304Z,20.73
2019-01-30T18:53:06.474Z,17.67
2019-01-30T18:55:35.719Z,19.00
2019-01-30T18:58:05.094Z,21.93
2019-01-30T19:00:35.614Z,18.03
2019-01-30T19:03:05.874Z,20.63
2019-01-30T19:05:35.105Z,21.17
2019-01-30T19:08:04.318Z,21.73
2019-01-30T19:10:33.226Z,22.50
2019-01-30T19:13:02.544Z,23.33
2019-01-30T19:15:31.982Z,23.67
2019-01-30T19:18:01.334Z,25.67
2019-01-30T19:20:36.350Z,22.10
2019-01-30T19:23:07.087Z,20.17
2019-01-30T19:25:36.646Z,24.37
2019-01-30T19:28:06.226Z,21.67
2019-01-30T19:30:35.197Z,21.03
2019-01-30T19:33:07.146Z,19.53
2019-01-30T19:35:36.512Z,23.07
2019-01-30T19:38:05.970Z,24.67
2019-01-30T19:40:35.023Z,23.20
2019-01-30T19:43:04.601Z,24.90
2019-01-30T19:45:34.157Z,22.70
2019-01-30T19:48:03.279Z,23.87
2019-01-30T19:50:32.419Z,27.57
2019-01-30T19:53:01.689Z,27.13
2019-01-30T19:55:30.754Z,25.67
2019-01-30T19:57:59.858Z,28.90
2019-01-30T20:00:30.417Z,24.93
2019-01-30T20:03:01.032Z,20.63
2019-01-30T20:05:30.290Z,25.63
2019-01-30T20:07:59.270Z,25.50
2019-01-30T20:10:29.838Z,24.10
2019-01-30T20:12:59.013Z,26.80
2019-01-30T20:15:28.374Z,23.30
2019-01-30T20:17:57.353Z,18.97
2019-01-30T20:20:26.339Z,28.90
2019-01-30T20:22:55.754Z,26.37
2019-01-30T20:25:26.029Z,24.33
2019-01-30T20:27:55.276Z,22.77
2019-01-30T20:30:24.576Z,24.23
2019-01-30T20:32:53.561Z,27.83
2019-01-30T20:35:22.651Z,24.63
2019-01-30T20:37:51.699Z,27.03
2019-01-30T20:40:21.454Z,26.57
2019-01-30T20:42:52.751Z,23.93
2019-01-30T20:45:33.053Z,25.30
2019-01-30T20:47:52.040Z,23.77
2019-01-30T20:50:22.494Z,19.53
2019-01-30T20:52:51.773Z,25.77
2019-01-30T20:55:21.137Z,22.57
2019-01-30T20:57:50.127Z,23.47
2019-01-30T21:00:34.921Z,25.87
2019-01-30T21:03:02.659Z,20.00
2019-01-30T21:05:31.902Z,25.47
2019-01-30T21:08:00.935Z,23.63
2019-01-30T21:10:31.391Z,24.40
2019-01-30T21:13:00.373Z,24.23
2019-01-30T21:15:29.656Z,23.27
2019-01-30T21:17:58.989Z,21.83
2019-01-30T21:20:27.998Z,23.13
2019-01-30T21:22:57.263Z,23.43
2019-01-30T21:25:26.271Z,21.93
2019-01-30T21:27:55.513Z,25.03
2019-01-30T21:30:33.563Z,20.67
2019-01-30T21:33:02.558Z,26.70
2019-01-30T21:35:31.803Z,22.30
2019-01-30T21:38:00.836Z,22.90
2019-01-30T21:40:29.746Z,21.30
2019-01-30T21:42:58.728Z,23.53
2019-01-30T21:45:28.067Z,20.30
2019-01-30T21:47:57.390Z,22.27
2019-01-30T21:50:26.740Z,22.20
2019-01-30T21:52:55.756Z,24.53
2019-01-30T21:55:25.461Z,23.20
2019-01-30T21:57:54.789Z,27.17
2019-01-30T22:00:27.697Z,23.07
2019-01-30T22:02:56.773Z,28.47
2019-01-30T22:05:26.413Z,30.13
2019-01-30T22:08:01.118Z,26.00
2019-01-30T22:10:30.314Z,24.90
2019-01-30T22:12:59.661Z,31.33
2019-01-30T22:15:29.043Z,24.53
2019-01-30T22:17:58.373Z,23.70
2019-01-30T22:20:27.880Z,25.60
2019-01-30T22:22:56.880Z,22.00
2019-01-30T22:25:27.222Z,22.50
2019-01-30T22:27:56.229Z,21.07
2019-01-30T22:30:27.542Z,21.60
2019-01-30T22:32:56.865Z,23.00
2019-01-30T22:35:25.865Z,24.37
2019-01-30T22:37:54.814Z,24.70
2019-01-30T22:40:24.643Z,23.23
2019-01-30T22:42:53.958Z,24.40
2019-01-30T22:45:23.462Z,28.00
2019-01-30T22:47:52.478Z,26.67
2019-01-30T22:50:21.383Z,28.90
2019-01-30T22:52:50.485Z,25.00
2019-01-30T22:55:21.969Z,22.50
2019-01-30T22:57:51.594Z,25.43
2019-01-30T23:00:37.210Z,24.60
2019-01-30T23:03:06.205Z,23.00
2019-01-30T23:05:40.987Z,31.57
2019-01-30T23:08:22.621Z,29.73
2019-01-30T23:10:51.755Z,25.63
2019-01-30T23:13:29.978Z,27.00
2019-01-30T23:16:16.969Z,23.73
2019-01-30T23:18:47.537Z,26.53
2019-01-30T23:21:26.691Z,29.53
2019-01-30T23:24:06.108Z,23.27
2019-01-30T23:26:44.107Z,30.33
2019-01-30T23:29:40.313Z,30.97
2019-01-30T23:32:25.894Z,28.43
2019-01-30T23:35:12.841Z,25.30
2019-01-30T23:37:43.293Z,27.97
2019-01-30T23:40:16.870Z,33.57
2019-01-30T23:42:50.010Z,29.70
2019-01-30T23:45:26.149Z,26.07
2019-01-30T23:47:56.684Z,28.80
2019-01-30T23:50:27.140Z,25.70
2019-01-30T23:53:23.484Z,25.87
2019-01-30T23:56:05.786Z,29.57
2019-01-30T23:58:52.498Z,29.33
